Time;durP1;ratioP1;P1;durP2;ratioP2;P2;SDS_P1;SDS_P2;PMS_P1;PMS_P2;Temp;Humidity;BMP_temperature;BMP_pressure;BME280_temperature;BME280_humidity;BME280_pressure;Samples;Min_cycle;Max_cycle;Signal;HPM_P1;HPM_P2
2021/08/18 00:00:34;;;;;;;;;7.75;6.50;;;;;18.40;62.75;101697.03;6281581;22;46157;-75
2021/08/18 00:03:02;;;;;;;;;6.25;4.00;;;;;18.40;63.04;101693.50;6309122;22;45528;-76
2021/08/18 00:05:27;;;;;;;;;5.00;5.00;;;;;18.39;62.63;101678.38;6281323;22;45261;-76
2021/08/18 00:07:53;;;;;;;;;6.00;5.75;;;;;18.41;62.84;101689.91;6309151;22;45129;-76
2021/08/18 00:10:18;;;;;;;;;4.00;4.00;;;;;18.36;62.70;101686.44;6281279;22;45565;-77
2021/08/18 00:12:43;;;;;;;;;7.75;7.25;;;;;18.43;62.42;101688.09;6309033;22;46130;-76
2021/08/18 00:15:11;;;;;;;;;5.75;5.50;;;;;18.38;62.34;101690.84;6308923;22;45223;-76
2021/08/18 00:17:37;;;;;;;;;6.25;6.25;;;;;18.42;62.38;101697.00;6281035;22;45399;-76
2021/08/18 00:20:03;;;;;;;;;4.25;4.25;;;;;18.40;62.93;101693.50;6308951;22;45346;-76
2021/08/18 00:22:28;;;;;;;;;4.75;3.50;;;;;18.29;63.06;101683.06;6308341;22;47308;-76
2021/08/18 00:24:54;;;;;;;;;6.00;5.00;;;;;18.31;62.93;101683.91;6308869;22;45356;-76
2021/08/18 00:27:19;;;;;;;;;5.00;5.00;;;;;18.30;62.71;101684.78;6281170;22;45273;-76
2021/08/18 00:29:45;;;;;;;;;5.00;4.25;;;;;18.28;62.73;101679.50;6281002;22;45333;-76
2021/08/18 00:32:10;;;;;;;;;4.00;4.00;;;;;18.28;62.69;101676.84;6280860;22;48331;-76
2021/08/18 00:34:36;;;;;;;;;5.00;4.00;;;;;18.25;62.63;101678.69;6308856;22;45275;-76
2021/08/18 00:37:02;;;;;;;;;4.00;4.00;;;;;18.27;62.97;101682.19;6310032;22;45240;-76
2021/08/18 00:39:27;;;;;;;;;4.75;3.00;;;;;18.26;62.96;101680.47;6282647;22;45172;-77
2021/08/18 00:41:54;;;;;;;;;5.00;3.33;;;;;18.23;62.70;101677.81;6282568;22;47313;-76
2021/08/18 00:44:20;;;;;;;;;4.33;3.67;;;;;18.23;63.00;101665.41;6309999;22;45196;-76
2021/08/18 00:46:51;;;;;;;;;5.00;4.00;;;;;18.21;62.95;101674.34;6282358;22;45825;-76
2021/08/18 00:49:19;;;;;;;;;4.25;4.25;;;;;18.25;62.98;101682.22;6310170;22;45226;-76
2021/08/18 00:51:45;;;;;;;;;7.00;5.00;;;;;18.23;63.26;101676.06;6310189;22;45196;-76
2021/08/18 00:54:10;;;;;;;;;3.33;3.33;;;;;18.22;63.19;101679.63;6282560;22;45236;-76
2021/08/18 00:56:36;;;;;;;;;5.50;4.50;;;;;18.21;63.55;101671.66;6308531;22;45281;-76
2021/08/18 00:59:01;;;;;;;;;6.00;6.00;;;;;18.23;63.01;101678.72;6310391;22;45295;-76
2021/08/18 01:01:27;;;;;;;;;2.75;2.75;;;;;18.23;63.11;101672.50;6310059;22;45339;-76
2021/08/18 01:03:53;;;;;;;;;3.25;3.25;;;;;18.21;63.03;101677.00;6308012;22;45308;-76
2021/08/18 01:06:19;;;;;;;;;6.25;5.00;;;;;18.26;63.18;101676.00;6282491;22;45311;-75
2021/08/18 01:08:44;;;;;;;;;6.25;5.00;;;;;18.26;62.91;101672.47;6282496;22;45267;-76
2021/08/18 01:11:09;;;;;;;;;5.00;5.00;;;;;18.27;63.33;101668.88;6282393;22;46032;-76
2021/08/18 01:13:35;;;;;;;;;4.00;3.00;;;;;18.26;62.90;101668.00;6282657;22;45369;-76
2021/08/18 01:16:00;;;;;;;;;5.75;4.75;;;;;18.35;63.32;101674.03;6282309;22;45284;-75
2021/08/18 01:18:26;;;;;;;;;4.25;4.00;;;;;18.33;62.94;101667.84;6310508;22;45342;-76
2021/08/18 01:20:51;;;;;;;;;5.00;5.00;;;;;18.30;62.80;101663.47;6310506;22;46227;-76
2021/08/18 01:23:17;;;;;;;;;6.25;4.00;;;;;18.30;62.70;101659.00;6310329;22;45140;-75
2021/08/18 01:25:44;;;;;;;;;3.00;2.33;;;;;18.30;63.29;101658.13;6310624;22;45183;-76
2021/08/18 01:28:10;;;;;;;;;4.00;4.00;;;;;18.30;62.97;101661.66;6310416;22;45453;-76
2021/08/18 01:30:37;;;;;;;;;3.25;3.25;;;;;18.27;63.03;101663.53;6281815;22;48032;-76
2021/08/18 01:33:10;;;;;;;;;4.25;4.00;;;;;18.28;63.13;101654.63;6282098;22;45453;-76
2021/08/18 01:35:40;;;;;;;;;4.75;3.75;;;;;18.28;62.96;101658.19;6310370;22;45124;-75
2021/08/18 01:38:09;;;;;;;;;5.25;4.25;;;;;18.33;63.03;101663.41;6281880;22;45767;-75
2021/08/18 01:40:36;;;;;;;;;5.25;5.00;;;;;18.27;63.21;101659.06;6309961;22;45994;-75
2021/08/18 01:43:02;;;;;;;;;6.00;4.75;;;;;18.26;63.13;101653.78;6282081;22;45485;-76
2021/08/18 01:45:30;;;;;;;;;7.25;7.25;;;;;18.28;62.93;101657.28;6282254;22;45439;-75
2021/08/18 01:47:57;;;;;;;;;4.75;3.75;;;;;18.21;63.14;101637.88;6309308;22;45663;-76
2021/08/18 01:50:25;;;;;;;;;4.75;3.75;;;;;18.19;62.81;101642.38;6281977;22;46485;-75
2021/08/18 01:52:52;;;;;;;;;5.00;4.00;;;;;18.20;62.70;101648.56;6310108;22;45239;-75
2021/08/18 01:55:18;;;;;;;;;6.00;5.25;;;;;18.21;62.92;101651.22;6282030;22;45418;-76
2021/08/18 01:57:44;;;;;;;;;4.50;4.50;;;;;18.20;63.01;101649.47;6282062;22;45652;-76
2021/08/18 02:00:10;;;;;;;;;5.75;5.25;;;;;18.16;63.18;101641.56;6281913;22;47831;-76
2021/08/18 02:02:36;;;;;;;;;7.25;5.50;;;;;18.22;63.17;101644.09;6309982;22;45239;-76
2021/08/18 02:05:02;;;;;;;;;5.25;5.25;;;;;18.22;63.17;101644.97;6310702;22;45230;-76
2021/08/18 02:07:27;;;;;;;;;4.75;4.75;;;;;18.16;63.52;101636.22;6282375;22;45256;-75
2021/08/18 02:09:52;;;;;;;;;4.00;2.75;;;;;18.17;63.10;101641.50;6307522;22;46817;-76
2021/08/18 02:12:18;;;;;;;;;3.75;3.75;;;;;18.20;63.23;101653.91;6310125;22;45217;-76
2021/08/18 02:14:44;;;;;;;;;4.25;4.00;;;;;18.18;63.33;101651.28;6310194;22;45233;-75
2021/08/18 02:17:09;;;;;;;;;3.50;3.50;;;;;18.13;63.33;101633.63;6309884;22;45231;-76
2021/08/18 02:19:35;;;;;;;;;6.50;4.75;;;;;18.15;63.07;101645.13;6309594;22;45314;-76
2021/08/18 02:22:00;;;;;;;;;3.75;2.75;;;;;18.06;63.33;101633.75;6281921;22;45211;-76
2021/08/18 02:24:26;;;;;;;;;6.25;6.00;;;;;18.16;63.08;101645.09;6310397;22;45202;-75
2021/08/18 02:26:51;;;;;;;;;5.00;5.00;;;;;18.13;63.28;101647.84;6282104;22;45330;-75
2021/08/18 02:29:16;;;;;;;;;4.00;4.00;;;;;18.11;63.91;101646.97;6281982;22;46925;-75
2021/08/18 02:31:42;;;;;;;;;4.75;4.00;;;;;18.05;63.70;101634.66;6310265;22;45294;-75
2021/08/18 02:34:09;;;;;;;;;3.25;3.25;;;;;18.08;64.10;101647.91;6282179;22;45249;-76
2021/08/18 02:36:36;;;;;;;;;3.50;3.50;;;;;18.00;63.75;101625.88;6310189;22;45273;-76
2021/08/18 02:39:03;;;;;;;;;2.25;2.00;;;;;18.07;64.14;101640.84;6281791;22;46359;-76
2021/08/18 02:41:29;;;;;;;;;4.00;4.00;;;;;18.07;63.97;101645.31;6281620;22;45211;-75
2021/08/18 02:43:54;;;;;;;;;2.75;2.75;;;;;18.02;64.19;101629.41;6309603;22;45230;-76
2021/08/18 02:46:20;;;;;;;;;4.50;4.50;;;;;18.05;64.02;101625.81;6309923;22;45391;-76
2021/08/18 02:48:45;;;;;;;;;4.00;4.00;;;;;18.04;63.81;101626.69;6281756;22;46306;-76
2021/08/18 02:51:11;;;;;;;;;3.00;2.75;;;;;18.12;63.70;101639.84;6281988;22;45781;-75
2021/08/18 02:53:36;;;;;;;;;3.00;3.00;;;;;18.05;64.11;101628.47;6310589;22;45133;-75
2021/08/18 02:56:02;;;;;;;;;3.00;3.00;;;;;18.06;63.85;101622.22;6310091;22;45487;-75
2021/08/18 02:58:28;;;;;;;;;3.00;3.00;;;;;18.05;64.02;101620.47;6309315;22;45392;-75
2021/08/18 03:00:53;;;;;;;;;4.00;4.00;;;;;18.11;63.76;101628.31;6309566;22;45200;-75
2021/08/18 03:03:18;;;;;;;;;6.25;4.00;;;;;18.07;63.83;101624.84;6281880;22;45370;-75
2021/08/18 03:05:44;;;;;;;;;6.00;4.67;;;;;18.11;63.86;101624.78;6282191;22;45549;-75
2021/08/18 03:08:09;;;;;;;;;5.75;4.00;;;;;18.06;64.19;101627.53;6310002;22;45440;-76
2021/08/18 03:10:35;;;;;;;;;6.50;5.00;;;;;18.04;64.27;101621.34;6307838;22;45426;-76
2021/08/18 03:13:00;;;;;;;;;4.25;3.25;;;;;18.10;64.13;101631.03;6282226;22;45364;-76
2021/08/18 03:15:26;;;;;;;;;3.67;3.67;;;;;18.09;63.95;101622.16;6282065;22;45465;-76
2021/08/18 03:17:52;;;;;;;;;5.00;5.00;;;;;18.08;63.96;101626.59;6281252;22;46077;-76
2021/08/18 03:20:18;;;;;;;;;5.75;4.00;;;;;18.05;63.72;101632.00;6309830;22;45158;-76
2021/08/18 03:22:43;;;;;;;;;4.25;3.50;;;;;18.08;64.36;101633.72;6309865;22;45160;-76
2021/08/18 03:25:08;;;;;;;;;4.00;4.00;;;;;18.00;64.26;101622.34;6309748;22;45484;-76
2021/08/18 03:27:36;;;;;;;;;4.00;3.50;;;;;17.97;64.15;101609.97;6281460;22;48359;-76
2021/08/18 03:30:01;;;;;;;;;4.25;4.25;;;;;17.98;64.11;101622.38;6309798;22;45163;-76
2021/08/18 03:32:27;;;;;;;;;5.00;5.00;;;;;18.00;64.19;101615.22;6281580;22;45417;-76
2021/08/18 03:34:52;;;;;;;;;4.00;2.75;;;;;18.01;63.94;101624.09;6309328;22;45349;-76
2021/08/18 03:37:17;;;;;;;;;6.00;6.00;;;;;18.01;64.11;101624.97;6309334;22;45326;-76
2021/08/18 03:39:43;;;;;;;;;5.25;3.75;;;;;17.98;64.37;101616.16;6281187;22;45307;-76
2021/08/18 03:42:08;;;;;;;;;5.00;5.00;;;;;17.99;64.44;101617.91;6310201;22;45263;-76
2021/08/18 03:44:34;;;;;;;;;4.00;4.00;;;;;18.03;64.72;101625.81;6281101;22;45254;-76
2021/08/18 03:47:00;;;;;;;;;4.75;4.75;;;;;18.05;64.52;101632.00;6281543;22;47418;-76
2021/08/18 03:49:26;;;;;;;;;4.25;4.25;;;;;17.99;64.59;101615.25;6309228;22;45203;-76
2021/08/18 03:51:51;;;;;;;;;5.00;4.00;;;;;17.99;65.22;101617.91;6309862;22;45374;-77
2021/08/18 03:54:17;;;;;;;;;5.75;3.75;;;;;18.03;64.42;101627.63;6309565;22;45537;-76
2021/08/18 03:56:42;;;;;;;;;6.00;6.00;;;;;18.00;65.14;101625.88;6281467;22;47261;-76
2021/08/18 03:59:08;;;;;;;;;6.75;6.25;;;;;18.01;65.04;101627.63;6281437;22;45194;-75
2021/08/18 04:01:33;;;;;;;;;5.50;5.50;;;;;17.98;64.94;101610.84;6309382;22;45097;-75
2021/08/18 04:03:59;;;;;;;;;6.75;6.50;;;;;17.93;65.11;101610.91;6281190;22;45481;-76
2021/08/18 04:06:24;;;;;;;;;6.00;6.00;;;;;17.98;65.17;101622.38;6307042;22;48364;-76
2021/08/18 04:08:49;;;;;;;;;5.00;4.00;;;;;17.88;65.00;101607.47;6309459;22;45152;-75
2021/08/18 04:11:15;;;;;;;;;5.50;4.00;;;;;17.91;65.41;101620.75;6308440;22;45200;-76
2021/08/18 04:13:40;;;;;;;;;6.25;5.25;;;;;17.89;65.26;101617.25;6311064;22;45118;-76
2021/08/18 04:16:05;;;;;;;;;6.00;4.75;;;;;17.93;65.26;101626.03;6282459;22;46193;-76
2021/08/18 04:18:31;;;;;;;;;4.25;4.25;;;;;17.83;65.00;101610.25;6282628;22;45203;-75
2021/08/18 04:20:56;;;;;;;;;5.75;5.75;;;;;17.88;65.14;101625.25;6283015;22;45481;-76
2021/08/18 04:23:22;;;;;;;;;4.00;4.00;;;;;17.88;65.43;101622.59;6308888;22;45462;-75
2021/08/18 04:25:47;;;;;;;;;5.00;5.00;;;;;17.85;65.60;101619.09;6310256;22;46397;-76
2021/08/18 04:28:12;;;;;;;;;6.75;6.75;;;;;17.84;65.28;101617.31;6282872;22;45348;-75
2021/08/18 04:30:38;;;;;;;;;4.67;4.67;;;;;17.87;65.30;101624.38;6310645;22;45279;-76
2021/08/18 04:33:03;;;;;;;;;4.00;4.00;;;;;17.87;65.26;101620.84;6310377;22;45357;-76
2021/08/18 04:35:29;;;;;;;;;6.75;6.25;;;;;17.90;65.41;101628.75;6282406;22;47170;-75
2021/08/18 04:37:54;;;;;;;;;6.25;5.25;;;;;17.88;65.16;101627.91;6282490;22;45263;-76
2021/08/18 04:40:21;;;;;;;;;6.00;6.00;;;;;17.86;65.23;101627.97;6282352;22;45299;-76
2021/08/18 04:42:48;;;;;;;;;5.50;5.50;;;;;17.88;65.46;101626.13;6310868;22;45493;-76
2021/08/18 04:45:15;;;;;;;;;10.00;5.50;;;;;17.84;65.57;101627.09;6282050;22;46054;-76
2021/08/18 04:47:41;;;;;;;;;7.00;7.00;;;;;17.86;65.48;101633.28;6282208;22;45267;-76
2021/08/18 04:50:08;;;;;;;;;5.75;4.75;;;;;17.88;65.80;101639.44;6282337;22;45169;-75
2021/08/18 04:52:33;;;;;;;;;5.00;5.00;;;;;17.84;65.57;101622.66;6309969;22;45357;-76
2021/08/18 04:54:59;;;;;;;;;5.00;3.25;;;;;17.83;65.54;101630.69;6282052;22;46202;-76
2021/08/18 04:57:24;;;;;;;;;9.25;7.25;;;;;17.83;65.85;101620.03;6310191;22;45350;-75
2021/08/18 04:59:50;;;;;;;;;5.00;5.00;;;;;17.83;65.79;101622.69;6310575;22;45429;-75
2021/08/18 05:02:16;;;;;;;;;8.50;7.50;;;;;17.85;65.78;101626.19;6310333;22;45434;-76
2021/08/18 05:04:41;;;;;;;;;6.33;6.00;;;;;17.85;65.76;101632.41;6310134;22;45353;-75
2021/08/18 05:07:07;;;;;;;;;5.25;5.25;;;;;17.83;65.77;101630.69;6310476;22;45195;-76
2021/08/18 05:09:32;;;;;;;;;7.50;7.50;;;;;17.80;66.16;101620.06;6310694;22;45252;-76
2021/08/18 05:11:58;;;;;;;;;6.75;6.75;;;;;17.84;65.96;101633.31;6310524;22;45145;-76
2021/08/18 05:14:24;;;;;;;;;7.00;5.25;;;;;17.83;65.98;101631.56;6308581;22;48382;-75
2021/08/18 05:16:50;;;;;;;;;5.00;5.00;;;;;17.84;65.83;101624.44;6282314;22;45122;-76
2021/08/18 05:19:16;;;;;;;;;7.50;7.50;;;;;17.77;66.03;101625.41;6310365;22;45168;-75
2021/08/18 05:21:41;;;;;;;;;5.75;4.75;;;;;17.79;65.95;101621.84;6282050;22;45368;-76
2021/08/18 05:24:07;;;;;;;;;5.75;5.75;;;;;17.81;65.84;101620.03;6310691;22;46072;-75
2021/08/18 05:26:33;;;;;;;;;4.50;4.50;;;;;17.82;66.12;101631.56;6282248;22;45406;-76
2021/08/18 05:28:58;;;;;;;;;5.25;4.00;;;;;17.83;65.99;101628.03;6310210;22;45279;-76
2021/08/18 05:31:23;;;;;;;;;4.50;4.50;;;;;17.87;65.95;101623.50;6282065;22;46017;-75
2021/08/18 05:33:49;;;;;;;;;6.25;6.25;;;;;17.85;66.20;101628.84;6281391;22;47293;-76
2021/08/18 05:36:15;;;;;;;;;6.00;6.00;;;;;17.91;66.35;101631.41;6282281;22;45720;-75
2021/08/18 05:38:40;;;;;;;;;6.75;6.25;;;;;17.90;66.34;101637.63;6281704;22;45344;-76
2021/08/18 05:41:06;;;;;;;;;7.75;6.50;;;;;17.90;66.00;101636.75;6310161;22;45464;-75
2021/08/18 05:43:31;;;;;;;;;5.00;4.00;;;;;17.92;66.03;101637.63;6281160;22;47708;-75
2021/08/18 05:45:57;;;;;;;;;4.00;4.00;;;;;17.89;65.85;101638.56;6282076;22;45437;-76
2021/08/18 05:48:22;;;;;;;;;7.25;6.00;;;;;17.87;66.26;101635.03;6282070;22;45200;-75
2021/08/18 05:50:47;;;;;;;;;8.00;8.00;;;;;17.88;66.12;101636.78;6310310;22;45507;-75
2021/08/18 05:53:17;;;;;;;;;5.25;5.25;;;;;17.94;65.92;101655.31;6282094;22;48366;-76
2021/08/18 05:55:43;;;;;;;;;9.75;8.75;;;;;17.95;65.63;101645.53;6282215;22;45276;-76
2021/08/18 05:58:08;;;;;;;;;9.00;7.00;;;;;17.99;65.91;101650.78;6310076;22;45258;-75
2021/08/18 06:00:34;;;;;;;;;5.00;5.00;;;;;17.97;66.02;101641.94;6310265;22;45319;-76
2021/08/18 06:03:00;;;;;;;;;6.50;5.50;;;;;18.06;65.90;101655.06;6281811;22;48493;-76
2021/08/18 06:05:25;;;;;;;;;6.25;5.00;;;;;17.99;66.08;101637.47;6282320;22;45406;-76
2021/08/18 06:07:50;;;;;;;;;6.00;6.00;;;;;18.02;66.00;101641.84;6310487;22;45825;-76
2021/08/18 06:10:16;;;;;;;;;5.75;4.75;;;;;18.11;65.87;101648.78;6282230;22;45325;-76
2021/08/18 06:12:41;;;;;;;;;6.50;6.50;;;;;18.10;65.69;101644.38;6310135;22;45858;-76
2021/08/18 06:15:07;;;;;;;;;7.25;7.00;;;;;18.21;65.82;101647.69;6282219;22;45192;-76
2021/08/18 06:17:32;;;;;;;;;8.75;8.25;;;;;18.18;65.51;101637.97;6309992;22;45238;-76
2021/08/18 06:19:58;;;;;;;;;7.75;5.50;;;;;18.22;65.57;101642.31;6282437;22;45184;-76
2021/08/18 06:22:23;;;;;;;;;8.25;6.75;;;;;18.23;65.22;101645.84;6309861;22;45201;-76
2021/08/18 06:24:51;;;;;;;;;5.00;5.00;;;;;18.22;65.29;101642.31;6310032;22;45216;-76
2021/08/18 06:27:16;;;;;;;;;6.50;6.50;;;;;18.32;65.42;101658.13;6308340;22;45191;-76
2021/08/18 06:29:42;;;;;;;;;10.25;8.50;;;;;18.28;65.41;101644.84;6281926;22;45363;-76
2021/08/18 06:32:08;;;;;;;;;7.25;7.25;;;;;18.30;65.46;101652.81;6281737;22;47118;-76
2021/08/18 06:34:33;;;;;;;;;6.50;5.25;;;;;18.34;65.30;101645.63;6280753;22;45675;-76
2021/08/18 06:37:02;;;;;;;;;8.00;7.00;;;;;18.37;64.82;101654.44;6281582;22;45336;-76
2021/08/18 06:39:31;;;;;;;;;6.00;5.75;;;;;18.36;65.25;101654.47;6309760;22;45235;-76
2021/08/18 06:41:57;;;;;;;;;6.00;5.00;;;;;18.42;65.44;101657.00;6309731;22;45436;-76
2021/08/18 06:44:23;;;;;;;;;9.00;8.00;;;;;18.38;65.13;101661.50;6281572;22;45429;-76
2021/08/18 06:46:48;;;;;;;;;6.00;6.00;;;;;18.38;65.04;101653.53;6309624;22;45468;-77
2021/08/18 06:49:14;;;;;;;;;10.00;8.75;;;;;18.43;65.17;101664.97;6309435;22;45268;-76
2021/08/18 06:51:39;;;;;;;;;6.25;5.50;;;;;18.42;65.29;101649.03;6309625;22;45673;-76
2021/08/18 06:54:05;;;;;;;;;9.75;6.00;;;;;18.45;65.42;101657.81;6309701;22;45203;-76
2021/08/18 06:56:30;;;;;;;;;7.75;5.75;;;;;18.48;65.30;101651.53;6309752;22;45421;-76
2021/08/18 06:58:56;;;;;;;;;6.25;6.00;;;;;18.56;65.09;101662.03;6309700;22;45326;-77
2021/08/18 07:01:21;;;;;;;;;6.50;6.25;;;;;18.60;64.92;101653.03;6281405;22;47160;-76
2021/08/18 07:03:46;;;;;;;;;7.33;7.33;;;;;18.66;65.19;101652.94;6281316;22;45366;-76
2021/08/18 07:06:12;;;;;;;;;6.33;5.67;;;;;18.75;64.72;101649.19;6309934;22;45169;-76
2021/08/18 07:08:37;;;;;;;;;8.00;7.00;;;;;18.84;64.56;101660.50;6309687;22;45465;-77
2021/08/18 07:11:02;;;;;;;;;6.33;6.00;;;;;18.91;64.84;101654.13;6281428;22;47238;-77
2021/08/18 07:13:28;;;;;;;;;5.50;5.50;;;;;18.94;63.92;101656.72;6309793;22;45112;-77
2021/08/18 07:15:53;;;;;;;;;7.25;5.50;;;;;18.97;64.24;101646.91;6281641;22;45224;-77
2021/08/18 07:18:18;;;;;;;;;5.50;5.50;;;;;19.05;64.25;101658.25;6281430;22;45823;-77
2021/08/18 07:20:44;;;;;;;;;4.50;4.50;;;;;19.11;64.15;101650.09;6281635;22;46231;-77
2021/08/18 07:23:10;;;;;;;;;5.00;4.67;;;;;19.12;64.02;101650.06;6281578;22;45128;-77
2021/08/18 07:25:35;;;;;;;;;6.75;6.75;;;;;19.16;64.14;101645.53;6281693;22;45125;-77
2021/08/18 07:28:00;;;;;;;;;5.00;5.00;;;;;19.20;63.64;101647.22;6309547;22;45170;-77
2021/08/18 07:30:26;;;;;;;;;5.00;5.00;;;;;19.21;63.23;101643.63;6307055;22;45308;-76
2021/08/18 07:32:51;;;;;;;;;5.00;5.00;;;;;19.32;63.14;101651.34;6280863;22;45141;-77
2021/08/18 07:35:17;;;;;;;;;5.00;5.00;;;;;19.33;63.50;101643.31;6309764;22;45091;-77
2021/08/18 07:37:42;;;;;;;;;5.75;5.00;;;;;19.38;63.37;101648.53;6309595;22;45313;-77
2021/08/18 07:40:08;;;;;;;;;6.00;5.50;;;;;19.44;63.25;101652.84;6281124;22;47900;-77
2021/08/18 07:42:34;;;;;;;;;5.50;5.50;;;;;19.45;62.99;101650.13;6281432;22;45356;-77
2021/08/18 07:44:59;;;;;;;;;3.00;3.00;;;;;19.45;62.63;101650.13;6308797;22;45244;-77
2021/08/18 07:47:25;;;;;;;;;4.67;4.67;;;;;19.47;62.66;101647.41;6310251;22;45256;-77
2021/08/18 07:49:51;;;;;;;;;4.33;4.33;;;;;19.43;63.00;101646.59;6310493;22;45402;-77
2021/08/18 07:52:16;;;;;;;;;4.33;4.00;;;;;19.43;62.88;101648.41;6282458;22;45308;-77
2021/08/18 07:54:42;;;;;;;;;7.33;4.67;;;;;19.50;62.90;101658.03;6282390;22;45260;-77
2021/08/18 07:57:07;;;;;;;;;5.00;4.00;;;;;19.43;63.03;101643.94;6310408;22;45294;-77
2021/08/18 07:59:33;;;;;;;;;3.67;3.67;;;;;19.49;63.14;101654.47;6310327;22;46018;-77
2021/08/18 08:01:59;;;;;;;;;6.00;6.00;;;;;19.49;62.90;101646.47;6310839;22;45206;-77
2021/08/18 08:04:25;;;;;;;;;6.00;5.00;;;;;19.47;62.87;101650.97;6282444;22;45213;-78
2021/08/18 08:06:51;;;;;;;;;5.00;5.00;;;;;19.46;63.08;101637.63;6310743;22;45188;-77
2021/08/18 08:09:17;;;;;;;;;6.50;6.50;;;;;19.48;62.92;101651.84;6282525;22;46519;-77
2021/08/18 08:11:43;;;;;;;;;7.25;6.50;;;;;19.50;62.94;101645.53;6310523;22;45383;-77
2021/08/18 08:14:08;;;;;;;;;5.00;4.00;;;;;19.57;63.32;101643.59;6282445;22;45342;-77
2021/08/18 08:16:33;;;;;;;;;4.67;4.67;;;;;19.57;63.12;101646.25;6281890;22;45304;-77
2021/08/18 08:18:59;;;;;;;;;10.00;10.00;;;;;19.60;63.12;101643.50;6309846;22;45547;-77
2021/08/18 08:21:25;;;;;;;;;11.00;10.00;;;;;19.65;63.18;101641.59;6310536;22;45341;-77
2021/08/18 08:23:51;;;;;;;;;6.00;6.00;;;;;19.76;63.16;101647.53;6282666;22;45370;-77
2021/08/18 08:26:16;;;;;;;;;5.67;4.00;;;;;19.87;62.16;101646.38;6310364;22;45282;-77
2021/08/18 08:28:41;;;;;;;;;6.00;5.00;;;;;19.97;62.50;101646.06;6281915;22;46815;-77
2021/08/18 08:31:07;;;;;;;;;5.00;4.00;;;;;20.02;61.61;101648.59;6310070;22;45187;-77
2021/08/18 08:33:32;;;;;;;;;5.00;5.00;;;;;20.07;61.62;101653.81;6309758;22;45152;-77
2021/08/18 08:35:58;;;;;;;;;6.33;5.00;;;;;20.07;61.81;101644.00;6282345;22;45409;-77
2021/08/18 08:38:23;;;;;;;;;7.00;7.00;;;;;20.15;61.74;101651.78;6281806;22;48305;-77
2021/08/18 08:40:49;;;;;;;;;7.25;6.25;;;;;20.27;61.55;101656.81;6282140;22;45126;-76
2021/08/18 08:43:19;;;;;;;;;6.25;5.00;;;;;20.37;61.38;101657.38;6309425;22;45243;-77
2021/08/18 08:45:48;;;;;;;;;4.50;4.50;;;;;20.47;61.18;101661.53;6310031;22;45365;-78
2021/08/18 08:48:18;;;;;;;;;4.75;3.25;;;;;20.66;60.44;101659.22;6281427;22;48127;-77
2021/08/18 08:50:45;;;;;;;;;6.67;6.00;;;;;20.78;60.16;101655.28;6310034;22;45232;-77
2021/08/18 08:53:11;;;;;;;;;8.00;5.75;;;;;20.87;59.80;101652.31;6310060;22;45287;-77
2021/08/18 08:55:37;;;;;;;;;5.75;5.75;;;;;21.03;59.46;101666.06;6309871;22;45480;-77
2021/08/18 08:58:03;;;;;;;;;6.33;5.00;;;;;21.09;59.08;101661.41;6281394;22;46144;-77
2021/08/18 09:00:28;;;;;;;;;5.67;5.00;;;;;21.17;58.96;101660.25;6281589;22;45264;-77
2021/08/18 09:03:09;;;;;;;;;6.50;6.50;;;;;21.26;58.94;101660.84;6281668;22;45165;-77
2021/08/18 09:05:36;;;;;;;;;9.00;7.00;;;;;21.33;58.43;101665.06;6310005;22;45221;-77
2021/08/18 09:08:01;;;;;;;;;6.67;5.00;;;;;21.33;57.91;101661.50;6281175;22;46063;-77
2021/08/18 09:10:27;;;;;;;;;7.33;6.00;;;;;21.32;57.97;101651.72;6281792;22;45227;-77
2021/08/18 09:13:14;;;;;;;;;4.00;4.00;;;;;21.41;57.94;101659.50;6310378;22;45167;-77
2021/08/18 09:15:41;;;;;;;;;4.00;4.00;;;;;21.47;57.48;101667.31;6310080;22;45145;-77
2021/08/18 09:18:07;;;;;;;;;5.00;5.00;;;;;21.50;57.45;101663.66;6309310;22;45518;-77
2021/08/18 09:20:38;;;;;;;;;4.33;3.33;;;;;21.43;56.83;101660.28;6309591;22;45470;-77
2021/08/18 09:23:04;;;;;;;;;4.00;4.00;;;;;21.39;56.74;101658.66;6309750;22;45123;-77
2021/08/18 09:25:31;;;;;;;;;3.00;3.00;;;;;21.36;56.98;101666.78;6309562;22;45485;-77
2021/08/18 09:28:00;;;;;;;;;3.00;3.00;;;;;21.27;57.71;101667.06;6309613;22;45642;-77
2021/08/18 09:30:29;;;;;;;;;2.33;2.00;;;;;21.09;58.03;101653.38;6309619;22;45353;-77
2021/08/18 09:33:05;;;;;;;;;3.00;3.00;;;;;21.04;58.00;101662.50;6280999;22;45204;-77
2021/08/18 09:35:31;;;;;;;;;4.00;2.67;;;;;21.03;58.38;101656.22;6309722;22;45298;-77
2021/08/18 09:38:02;;;;;;;;;1.67;1.67;;;;;21.02;57.98;101665.22;6309597;22;45266;-77
2021/08/18 09:40:39;;;;;;;;;2.00;2.00;;;;;21.06;58.22;101666.88;6282073;22;45277;-78
2021/08/18 09:43:16;;;;;;;;;3.00;3.00;;;;;21.08;58.22;101656.97;6309787;22;45230;-76
2021/08/18 09:45:46;;;;;;;;;4.33;4.33;;;;;21.06;58.44;101656.16;6307413;22;45452;-77
2021/08/18 09:48:18;;;;;;;;;4.00;4.00;;;;;21.09;58.17;101655.16;6281052;22;47447;-77
2021/08/18 09:50:45;;;;;;;;;5.67;4.67;;;;;21.16;58.14;101656.72;6309410;22;45341;-77
2021/08/18 09:53:17;;;;;;;;;4.00;3.67;;;;;21.25;58.26;101653.75;6307913;22;45402;-77
2021/08/18 09:55:53;;;;;;;;;3.00;3.00;;;;;21.33;57.75;101651.69;6309985;22;45347;-77
2021/08/18 09:58:26;;;;;;;;;5.50;4.75;;;;;21.47;57.82;101647.69;6309315;22;46577;-77
2021/08/18 10:00:53;;;;;;;;;4.00;4.00;;;;;21.52;57.69;101651.94;6309111;22;45177;-77
2021/08/18 10:03:19;;;;;;;;;4.00;4.00;;;;;21.62;57.40;101647.13;6309533;22;45358;-77
2021/08/18 10:05:44;;;;;;;;;4.33;4.33;;;;;21.73;57.43;101646.75;6281453;22;45385;-76
2021/08/18 10:08:10;;;;;;;;;6.00;6.00;;;;;21.75;57.45;101644.88;6280822;22;45350;-76
2021/08/18 10:10:40;;;;;;;;;5.00;4.00;;;;;21.80;57.09;101637.56;6309531;22;45349;-76
2021/08/18 10:13:10;;;;;;;;;5.00;5.00;;;;;21.93;57.18;101651.41;6309698;22;45159;-76
2021/08/18 10:15:36;;;;;;;;;6.00;6.00;;;;;22.05;56.81;101639.34;6309157;22;45409;-77
2021/08/18 10:18:03;;;;;;;;;2.67;2.67;;;;;22.14;56.85;101641.69;6308795;22;45366;-76
2021/08/18 10:20:29;;;;;;;;;4.00;4.00;;;;;22.24;56.49;101640.44;6309307;22;45188;-76
2021/08/18 10:23:04;;;;;;;;;4.00;3.67;;;;;22.42;55.95;101646.91;6281155;22;45212;-76
2021/08/18 10:25:38;;;;;;;;;3.00;3.00;;;;;22.55;56.06;101647.28;6309450;22;45517;-77
2021/08/18 10:28:06;;;;;;;;;5.33;4.00;;;;;22.68;55.66;101643.19;6309465;22;45203;-78
2021/08/18 10:30:43;;;;;;;;;5.00;5.00;;;;;22.87;55.25;101635.25;6280983;22;45476;-75
2021/08/18 10:33:08;;;;;;;;;5.00;5.00;;;;;23.09;55.08;101628.13;6280475;22;45233;-76
2021/08/18 10:35:34;;;;;;;;;3.67;3.67;;;;;23.29;54.46;101635.31;6308396;22;45415;-76
2021/08/18 10:38:24;;;;;;;;;3.33;3.33;;;;;23.42;54.07;101635.69;6306729;22;46551;-75
2021/08/18 10:40:53;;;;;;;;;4.33;4.33;;;;;23.43;53.70;101631.16;6307512;22;45159;-77
2021/08/18 10:43:58;;;;;;;;;6.00;5.00;;;;;23.38;53.26;101633.19;6310155;22;45286;-77
2021/08/18 10:46:25;;;;;;;;;4.00;4.00;;;;;23.29;53.47;101621.03;6281419;22;45263;-77
2021/08/18 10:48:53;;;;;;;;;6.33;4.00;;;;;23.26;53.68;101624.72;6308786;22;45389;-78
2021/08/18 10:51:40;;;;;;;;;8.00;7.00;;;;;23.24;53.81;101623.03;6309239;22;45230;-77
2021/08/18 10:54:27;;;;;;;;;8.50;6.00;;;;;23.23;53.55;101618.56;6307482;22;45148;-76
2021/08/18 10:56:57;;;;;;;;;9.50;7.00;;;;;23.25;53.30;101619.38;6309242;22;45451;-76
2021/08/18 10:59:35;;;;;;;;;8.50;7.00;;;;;23.35;53.07;101620.75;6281120;22;47013;-77
2021/08/18 11:02:01;;;;;;;;;9.00;8.00;;;;;23.42;52.87;101616.00;6306749;22;45266;-77
2021/08/18 11:04:46;;;;;;;;;10.67;8.67;;;;;23.50;52.40;101619.22;6280812;22;45525;-78
2021/08/18 11:07:12;;;;;;;;;6.33;5.33;;;;;23.47;52.39;101616.63;6308637;22;45382;-75
2021/08/18 11:09:46;;;;;;;;;8.00;7.00;;;;;23.47;52.24;101606.78;6308654;22;46314;-75
2021/08/18 11:12:55;;;;;;;;;9.00;8.50;;;;;23.54;52.18;101608.25;6309436;22;45172;-77
2021/08/18 11:15:20;;;;;;;;;12.75;11.75;;;;;23.66;52.02;101600.59;6293303;22;45254;-77
2021/08/18 11:17:50;;;;;;;;;8.25;8.00;;;;;23.78;51.83;101594.69;6308811;22;45274;-75
2021/08/18 11:20:21;;;;;;;;;10.25;10.00;;;;;23.88;51.61;101604.09;6280392;22;46831;-77
2021/08/18 11:22:52;;;;;;;;;10.67;8.33;;;;;23.89;51.23;101596.88;6281103;22;45327;-77